createdAt,value
2023-05-21T00:00:00.802Z,953.1385
2023-05-21T00:01:02.649Z,953.1238
2023-05-21T00:02:04.474Z,953.1061
2023-05-21T00:03:06.445Z,953.0785
2023-05-21T00:04:08.165Z,953.0670
2023-05-21T00:05:11.082Z,953.0485
2023-05-21T00:06:11.866Z,953.0285
2023-05-21T00:07:13.642Z,953.0154
2023-05-21T00:08:15.564Z,952.9962
2023-05-21T00:09:17.322Z,952.9785
2023-05-21T00:10:19.163Z,952.9669
2023-05-21T00:11:21.008Z,952.9539
2023-05-21T00:12:22.829Z,952.9485
2023-05-21T00:13:24.654Z,952.9362
2023-05-21T00:14:26.481Z,952.9223
2023-05-21T00:15:28.333Z,952.9069
2023-05-21T00:16:30.274Z,952.8985
2023-05-21T00:17:32.029Z,952.8846
2023-05-21T00:18:33.838Z,952.8762
2023-05-21T00:19:35.642Z,952.8669
2023-05-21T00:20:37.477Z,952.8538
2023-05-21T00:21:39.323Z,952.8500
2023-05-21T00:22:41.184Z,952.8431
2023-05-21T00:23:42.994Z,952.8315
2023-05-21T00:24:44.847Z,952.8300
2023-05-21T00:25:46.650Z,952.8300
2023-05-21T00:26:48.516Z,952.8223
2023-05-21T00:27:50.320Z,952.8231
2023-05-21T00:28:52.170Z,952.8208
2023-05-21T00:29:54.028Z,952.8200
2023-05-21T00:30:55.832Z,952.8270
2023-05-21T00:31:57.713Z,952.8215
2023-05-21T00:32:59.510Z,952.8177
2023-05-21T00:34:01.323Z,952.8208
2023-05-21T00:35:03.175Z,952.8154
2023-05-21T00:36:05.024Z,952.8115
2023-05-21T00:37:06.836Z,952.8023
2023-05-21T00:38:08.695Z,952.7946
2023-05-21T00:39:10.486Z,952.7777
2023-05-21T00:40:12.312Z,952.7639
2023-05-21T00:41:14.163Z,952.7515
2023-05-21T00:42:16.048Z,952.7392
2023-05-21T00:43:17.819Z,952.7285
2023-05-21T00:44:19.723Z,952.7308
2023-05-21T00:45:21.493Z,952.7177
2023-05-21T00:46:23.357Z,952.7177
2023-05-21T00:47:25.190Z,952.7269
2023-05-21T00:48:27.006Z,952.7323
2023-05-21T00:49:28.804Z,952.7369
2023-05-21T00:50:30.634Z,952.7308
2023-05-21T00:51:32.481Z,952.7323
2023-05-21T00:52:34.323Z,952.7423
2023-05-21T00:53:36.136Z,952.7292
2023-05-21T00:54:37.971Z,952.7346
2023-05-21T00:55:39.792Z,952.7277
2023-05-21T00:56:41.658Z,952.7269
2023-05-21T00:57:43.472Z,952.7330
2023-05-21T00:58:45.293Z,952.7469
2023-05-21T00:59:47.149Z,952.7392
2023-05-21T01:00:48.973Z,952.7385
2023-05-21T01:01:50.809Z,952.7238
2023-05-21T01:02:52.691Z,952.7161
2023-05-21T01:03:54.468Z,952.7169
2023-05-21T01:04:56.328Z,952.7100
2023-05-21T01:05:58.114Z,952.7047
2023-05-21T01:06:59.963Z,952.7146
2023-05-21T01:08:01.828Z,952.7092
2023-05-21T01:09:04.957Z,952.7077
2023-05-21T01:10:05.553Z,952.6931
2023-05-21T01:11:07.304Z,952.6900
2023-05-21T01:12:09.128Z,952.6970
2023-05-21T01:13:10.988Z,952.6892
2023-05-21T01:14:12.874Z,952.6800
2023-05-21T01:15:14.641Z,952.6815
2023-05-21T01:16:16.523Z,952.6792
2023-05-21T01:17:18.380Z,952.6708
2023-05-21T01:18:20.203Z,952.6554
2023-05-21T01:19:22.045Z,952.6516
2023-05-21T01:20:23.836Z,952.6561
2023-05-21T01:21:25.654Z,952.6653
2023-05-21T01:22:27.508Z,952.6577
2023-05-21T01:23:29.377Z,952.6492
2023-05-21T01:24:31.167Z,952.6362
2023-05-21T01:25:33.007Z,952.6300
2023-05-21T01:26:34.847Z,952.6246
2023-05-21T01:27:36.683Z,952.6238
2023-05-21T01:28:38.539Z,952.6246
2023-05-21T01:29:40.338Z,952.6185
2023-05-21T01:30:42.186Z,952.6200
2023-05-21T01:31:44.022Z,952.6108
2023-05-21T01:32:45.878Z,952.6069
2023-05-21T01:33:47.738Z,952.6008
2023-05-21T01:34:49.555Z,952.5946
2023-05-21T01:35:51.378Z,952.5869
2023-05-21T01:36:53.190Z,952.5862
2023-05-21T01:37:55.036Z,952.5823
2023-05-21T01:38:56.869Z,952.5746
2023-05-21T01:39:58.702Z,952.5646
2023-05-21T01:41:00.560Z,952.5585
2023-05-21T01:42:02.377Z,952.5500
2023-05-21T01:43:04.189Z,952.5400
2023-05-21T01:44:06.069Z,952.5415
2023-05-21T01:45:07.873Z,952.5438
2023-05-21T01:46:09.709Z,952.5408
2023-05-21T01:47:11.586Z,952.5477
2023-05-21T01:48:13.413Z,952.5392
2023-05-21T01:49:15.208Z,952.5400
2023-05-21T01:50:17.039Z,952.5269
2023-05-21T01:51:18.888Z,952.5292
2023-05-21T01:52:20.712Z,952.5262
2023-05-21T01:53:22.548Z,952.5200
2023-05-21T01:54:24.412Z,952.5177
2023-05-21T01:55:26.233Z,952.5192
2023-05-21T01:56:28.039Z,952.5208
2023-05-21T01:57:29.942Z,952.5123
2023-05-21T01:58:31.723Z,952.4946
2023-05-21T01:59:33.547Z,952.4830
2023-05-21T02:00:35.396Z,952.4854
2023-05-21T02:01:37.301Z,952.4877
2023-05-21T02:02:39.084Z,952.4808
2023-05-21T02:03:41.084Z,952.4777
2023-05-21T02:04:42.726Z,952.4777
2023-05-21T02:05:44.555Z,952.4654
2023-05-21T02:06:46.396Z,952.4462
2023-05-21T02:07:48.221Z,952.4408
2023-05-21T02:08:50.042Z,952.4300
2023-05-21T02:09:51.895Z,952.4185
2023-05-21T02:11:01.288Z,952.4115
2023-05-21T02:11:55.555Z,952.4141
2023-05-21T02:12:57.408Z,952.4123
2023-05-21T02:13:59.228Z,952.4161
2023-05-21T02:15:01.086Z,952.4153
2023-05-21T02:16:02.934Z,952.4069
2023-05-21T02:17:04.781Z,952.3947
2023-05-21T02:18:06.623Z,952.3800
2023-05-21T02:19:08.451Z,952.3808
2023-05-21T02:20:10.276Z,952.3754
2023-05-21T02:21:12.089Z,952.3615
2023-05-21T02:22:13.969Z,952.3577
2023-05-21T02:23:15.790Z,952.3461
2023-05-21T02:24:17.608Z,952.3370
2023-05-21T02:25:19.462Z,952.3331
2023-05-21T02:26:21.257Z,952.3285
2023-05-21T02:27:23.108Z,952.3246
2023-05-21T02:28:24.973Z,952.3130
2023-05-21T02:29:26.812Z,952.3030
2023-05-21T02:30:28.688Z,952.2885
2023-05-21T02:31:30.428Z,952.2885
2023-05-21T02:32:32.343Z,952.2861
2023-05-21T02:33:34.169Z,952.2808
2023-05-21T02:34:35.942Z,952.2785
2023-05-21T02:35:37.990Z,952.2808
2023-05-21T02:36:39.635Z,952.2762
2023-05-21T02:37:41.454Z,952.2800
2023-05-21T02:38:43.293Z,952.2777
2023-05-21T02:39:45.115Z,952.2792
2023-05-21T02:40:54.434Z,952.2831
2023-05-21T02:41:48.774Z,952.2833
2023-05-21T02:42:50.599Z,952.2900
2023-05-21T02:43:52.470Z,952.2938
2023-05-21T02:44:54.279Z,952.2992
2023-05-21T02:45:56.146Z,952.3038
2023-05-21T02:46:57.927Z,952.3069
2023-05-21T02:47:59.863Z,952.2985
2023-05-21T02:49:01.609Z,952.2961
2023-05-21T02:50:03.442Z,952.2831
2023-05-21T02:51:05.259Z,952.2708
2023-05-21T02:52:07.145Z,952.2677
2023-05-21T02:53:08.936Z,952.2723
2023-05-21T02:54:10.756Z,952.2639
2023-05-21T02:55:12.624Z,952.2623
2023-05-21T02:56:14.452Z,952.2670
2023-05-21T02:57:16.323Z,952.2592
2023-05-21T02:58:18.091Z,952.2615
2023-05-21T02:59:19.954Z,952.2531
2023-05-21T03:00:21.762Z,952.2415
2023-05-21T03:01:23.714Z,952.2369
2023-05-21T03:02:25.558Z,952.2438
2023-05-21T03:03:27.460Z,952.2562
2023-05-21T03:04:29.113Z,952.2608
2023-05-21T03:05:30.938Z,952.2747
2023-05-21T03:06:32.775Z,952.2754
2023-05-21T03:07:34.635Z,952.2831
2023-05-21T03:08:36.477Z,952.2900
2023-05-21T03:09:38.289Z,952.2823
2023-05-21T03:10:40.126Z,952.2739
2023-05-21T03:11:41.989Z,952.2731
2023-05-21T03:12:43.776Z,952.2754
2023-05-21T03:13:45.653Z,952.2747
2023-05-21T03:14:47.464Z,952.2869
2023-05-21T03:15:49.290Z,952.2831
2023-05-21T03:16:51.152Z,952.2923
2023-05-21T03:17:53.004Z,952.2808
2023-05-21T03:18:54.825Z,952.2816
2023-05-21T03:19:56.653Z,952.2831
2023-05-21T03:20:58.474Z,952.2869
2023-05-21T03:22:00.298Z,952.2839
2023-05-21T03:23:02.138Z,952.2838
2023-05-21T03:24:03.972Z,952.2977
2023-05-21T03:25:05.798Z,952.3123
2023-05-21T03:26:07.626Z,952.3138
2023-05-21T03:27:09.472Z,952.3192
2023-05-21T03:28:11.302Z,952.3123
2023-05-21T03:29:13.203Z,952.3292
2023-05-21T03:30:15.056Z,952.3362
2023-05-21T03:31:16.885Z,952.3484
2023-05-21T03:32:18.771Z,952.3538
2023-05-21T03:33:20.546Z,952.3577
2023-05-21T03:34:22.371Z,952.3646
2023-05-21T03:35:24.201Z,952.3715
2023-05-21T03:36:26.047Z,952.3754
2023-05-21T03:37:27.883Z,952.3831
2023-05-21T03:38:29.708Z,952.3877
2023-05-21T03:39:31.541Z,952.3839
2023-05-21T03:40:33.378Z,952.3792
2023-05-21T03:41:35.227Z,952.3785
2023-05-21T03:42:37.061Z,952.3792
2023-05-21T03:43:46.413Z,952.3839
2023-05-21T03:44:40.746Z,952.3800
2023-05-21T03:45:44.272Z,952.3808
2023-05-21T03:46:44.414Z,952.3923
2023-05-21T03:47:46.266Z,952.4061
2023-05-21T03:48:48.066Z,952.4146
2023-05-21T03:49:49.917Z,952.4300
2023-05-21T03:50:51.788Z,952.4454
2023-05-21T03:51:53.576Z,952.4615
2023-05-21T03:52:55.407Z,952.4708
2023-05-21T03:53:57.256Z,952.4815
2023-05-21T03:54:59.096Z,952.4823
2023-05-21T03:56:00.931Z,952.4938
2023-05-21T03:57:02.800Z,952.4985
2023-05-21T03:58:04.611Z,952.5046
2023-05-21T03:59:06.437Z,952.5146
2023-05-21T04:00:08.295Z,952.5361
2023-05-21T04:01:10.119Z,952.5546
2023-05-21T04:02:11.977Z,952.5708
2023-05-21T04:03:13.846Z,952.5939
2023-05-21T04:04:15.730Z,952.6061
2023-05-21T04:05:17.461Z,952.6100
2023-05-21T04:06:19.314Z,952.6108
2023-05-21T04:07:21.128Z,952.6130
2023-05-21T04:08:23.002Z,952.6077
2023-05-21T04:09:24.825Z,952.6038
2023-05-21T04:10:26.640Z,952.6046
2023-05-21T04:11:28.487Z,952.5977
2023-05-21T04:12:30.306Z,952.5931
2023-05-21T04:13:32.146Z,952.6092
2023-05-21T04:14:34.015Z,952.6200
2023-05-21T04:15:36.132Z,952.6331
2023-05-21T04:16:37.917Z,952.6492
2023-05-21T04:17:39.556Z,952.6608
2023-05-21T04:18:42.450Z,952.6761
2023-05-21T04:19:43.163Z,952.6823
2023-05-21T04:20:44.999Z,952.6892
2023-05-21T04:21:46.829Z,952.6815
2023-05-21T04:22:48.669Z,952.6823
2023-05-21T04:23:50.489Z,952.6892
2023-05-21T04:24:52.337Z,952.6892
2023-05-21T04:25:54.174Z,952.6923
2023-05-21T04:26:56.009Z,952.7015
2023-05-21T04:27:57.858Z,952.7192
2023-05-21T04:28:59.682Z,952.7300
2023-05-21T04:30:01.511Z,952.7508
2023-05-21T04:31:03.388Z,952.7631
2023-05-21T04:32:05.186Z,952.7623
2023-05-21T04:33:07.043Z,952.7692
2023-05-21T04:34:08.842Z,952.7662
2023-05-21T04:35:10.664Z,952.7670
2023-05-21T04:36:12.512Z,952.7654
2023-05-21T04:37:14.316Z,952.7646
2023-05-21T04:38:16.150Z,952.7685
2023-05-21T04:39:17.986Z,952.7846
2023-05-21T04:40:19.821Z,952.7953
2023-05-21T04:41:21.649Z,952.8154
2023-05-21T04:42:23.471Z,952.8270
2023-05-21T04:43:25.330Z,952.8370
2023-05-21T04:44:27.179Z,952.8500
2023-05-21T04:45:28.985Z,952.8600
2023-05-21T04:46:40.295Z,952.8654
2023-05-21T04:47:31.340Z,952.8700
2023-05-21T04:48:32.897Z,952.8723
2023-05-21T04:49:34.488Z,952.8815
2023-05-21T04:50:36.018Z,952.8862
2023-05-21T04:51:37.562Z,952.9023
2023-05-21T04:52:39.160Z,952.9061
2023-05-21T04:53:40.685Z,952.9200
2023-05-21T04:54:42.238Z,952.9230
2023-05-21T04:55:43.793Z,952.9330
2023-05-21T04:56:45.365Z,952.9392
2023-05-21T04:57:46.924Z,952.9377
2023-05-21T04:58:48.487Z,952.9362
2023-05-21T04:59:50.055Z,952.9261
2023-05-21T05:00:51.859Z,952.9223
2023-05-21T05:01:53.568Z,952.9046
2023-05-21T05:02:55.489Z,952.8977
2023-05-21T05:03:57.412Z,952.9023
2023-05-21T05:04:59.105Z,952.9016
2023-05-21T05:06:00.929Z,952.9077
2023-05-21T05:07:02.765Z,952.9238
2023-05-21T05:08:04.576Z,952.9323
2023-05-21T05:09:06.419Z,952.9492
2023-05-21T05:10:08.260Z,952.9639
2023-05-21T05:11:10.075Z,952.9684
2023-05-21T05:12:11.907Z,952.9715
2023-05-21T05:13:13.776Z,952.9577
2023-05-21T05:14:15.568Z,952.9438
2023-05-21T05:15:17.445Z,952.9254
2023-05-21T05:16:19.292Z,952.9061
2023-05-21T05:17:21.084Z,952.9008
2023-05-21T05:18:22.952Z,952.9054
2023-05-21T05:19:24.819Z,952.9238
2023-05-21T05:20:26.605Z,952.9346
2023-05-21T05:21:28.432Z,952.9462
2023-05-21T05:22:30.254Z,952.9562
2023-05-21T05:23:32.102Z,952.9615
2023-05-21T05:24:33.948Z,952.9723
2023-05-21T05:25:35.983Z,952.9854
2023-05-21T05:26:37.625Z,952.9869
2023-05-21T05:27:39.442Z,952.9969
2023-05-21T05:28:41.259Z,953.0054
2023-05-21T05:29:43.091Z,953.0146
2023-05-21T05:30:44.989Z,953.0177
2023-05-21T05:31:46.769Z,953.0162
2023-05-21T05:32:48.632Z,953.0170
2023-05-21T05:33:50.421Z,953.0115
2023-05-21T05:34:52.277Z,953.0092
2023-05-21T05:35:54.099Z,953.0108
2023-05-21T05:36:55.933Z,953.0108
2023-05-21T05:37:57.749Z,953.0085
2023-05-21T05:38:59.585Z,953.0146
2023-05-21T05:40:01.416Z,953.0123
2023-05-21T05:41:11.347Z,953.0146
2023-05-21T05:42:05.101Z,953.0075
2023-05-21T05:43:06.941Z,953.0000
2023-05-21T05:44:10.820Z,952.9946
2023-05-21T05:45:10.580Z,952.9969
2023-05-21T05:46:12.484Z,953.0100
2023-05-21T05:47:14.277Z,953.0200
2023-05-21T05:48:16.094Z,953.0262
2023-05-21T05:49:25.441Z,953.0308
2023-05-21T05:50:19.743Z,953.0358
2023-05-21T05:51:21.647Z,953.0423
2023-05-21T05:52:23.430Z,953.0408
2023-05-21T05:53:25.265Z,953.0385
2023-05-21T05:54:27.096Z,953.0346
2023-05-21T05:55:28.921Z,953.0239
2023-05-21T05:56:30.774Z,953.0223
2023-05-21T05:57:32.579Z,953.0154
2023-05-21T05:58:34.432Z,953.0185
2023-05-21T05:59:36.254Z,953.0115
2023-05-21T06:00:38.114Z,953.0208
2023-05-21T06:01:39.961Z,953.0254
2023-05-21T06:02:41.792Z,953.0339
2023-05-21T06:03:43.731Z,953.0415
2023-05-21T06:04:45.450Z,953.0554
2023-05-21T06:05:47.319Z,953.0662
2023-05-21T06:06:49.122Z,953.0777
2023-05-21T06:07:50.964Z,953.0746
2023-05-21T06:08:52.785Z,953.0792
2023-05-21T06:09:54.599Z,953.0739
2023-05-21T06:10:56.449Z,953.0792
2023-05-21T06:11:58.269Z,953.0808
2023-05-21T06:13:00.135Z,953.0839
2023-05-21T06:14:01.929Z,953.0984
2023-05-21T06:15:03.762Z,953.1138
2023-05-21T06:16:05.629Z,953.1285
2023-05-21T06:17:07.452Z,953.1454
2023-05-21T06:18:09.324Z,953.1592
2023-05-21T06:19:11.185Z,953.1577
2023-05-21T06:20:12.933Z,953.1584
2023-05-21T06:21:14.779Z,953.1500
2023-05-21T06:22:16.591Z,953.1331
2023-05-21T06:23:18.438Z,953.1246
2023-05-21T06:24:20.272Z,953.1270
2023-05-21T06:25:22.139Z,953.1431
2023-05-21T06:26:23.953Z,953.1584
2023-05-21T06:27:25.858Z,953.1761
2023-05-21T06:28:27.586Z,953.1854
2023-05-21T06:29:29.447Z,953.1830
2023-05-21T06:30:31.273Z,953.1862
2023-05-21T06:31:33.175Z,953.1862
2023-05-21T06:32:34.975Z,953.1854
2023-05-21T06:33:36.880Z,953.1908
2023-05-21T06:34:38.615Z,953.1870
2023-05-21T06:35:40.456Z,953.1823
2023-05-21T06:36:42.265Z,953.1746
2023-05-21T06:37:44.100Z,953.1677
2023-05-21T06:38:45.936Z,953.1685
2023-05-21T06:39:47.780Z,953.1754
2023-05-21T06:40:49.605Z,953.1877
2023-05-21T06:41:51.451Z,953.1870
2023-05-21T06:42:53.278Z,953.1885
2023-05-21T06:43:55.094Z,953.1854
2023-05-21T06:44:56.946Z,953.1769
2023-05-21T06:45:58.811Z,953.1577
2023-05-21T06:47:00.607Z,953.1554
2023-05-21T06:48:02.503Z,953.1623
2023-05-21T06:49:04.274Z,953.1761
2023-05-21T06:50:06.094Z,953.1723
2023-05-21T06:51:07.946Z,953.1854
2023-05-21T06:52:17.298Z,953.1885
2023-05-21T06:53:11.624Z,953.1825
2023-05-21T06:54:13.440Z,953.1677
2023-05-21T06:55:15.276Z,953.1477
2023-05-21T06:56:17.135Z,953.1462
2023-05-21T06:57:18.950Z,953.1431
2023-05-21T06:58:20.798Z,953.1539
2023-05-21T06:59:22.654Z,953.1623
2023-05-21T07:00:24.448Z,953.1723
2023-05-21T07:01:26.334Z,953.1815
2023-05-21T07:02:28.186Z,953.1946
2023-05-21T07:03:30.072Z,953.2015
2023-05-21T07:04:31.794Z,953.2123
2023-05-21T07:05:33.631Z,953.2131
2023-05-21T07:06:35.460Z,953.2100
2023-05-21T07:07:37.275Z,953.2146
2023-05-21T07:08:39.138Z,953.2100
2023-05-21T07:09:40.943Z,953.2146
2023-05-21T07:10:42.804Z,953.2108
2023-05-21T07:11:44.627Z,953.2253
2023-05-21T07:12:46.480Z,953.2377
2023-05-21T07:13:48.286Z,953.2438
2023-05-21T07:14:50.114Z,953.2508
2023-05-21T07:15:51.964Z,953.2477
2023-05-21T07:16:53.849Z,953.2454
2023-05-21T07:17:55.628Z,953.2430
2023-05-21T07:18:57.514Z,953.2462
2023-05-21T07:19:59.269Z,953.2446
2023-05-21T07:21:01.107Z,953.2430
2023-05-21T07:22:02.966Z,953.2423
2023-05-21T07:23:04.785Z,953.2508
2023-05-21T07:24:06.629Z,953.2500
2023-05-21T07:25:08.441Z,953.2477
2023-05-21T07:26:10.287Z,953.2415
2023-05-21T07:27:24.855Z,953.2346
2023-05-21T07:28:14.943Z,953.2261
2023-05-21T07:29:15.789Z,953.2223
2023-05-21T07:30:17.618Z,953.2161
2023-05-21T07:31:19.477Z,953.2123
2023-05-21T07:32:21.389Z,953.2039
2023-05-21T07:33:23.167Z,953.1946
2023-05-21T07:34:25.038Z,953.1830
2023-05-21T07:35:26.812Z,953.1600
2023-05-21T07:36:28.641Z,953.1339
2023-05-21T07:37:30.547Z,953.1362
2023-05-21T07:38:32.300Z,953.1346
2023-05-21T07:39:34.160Z,953.1285
2023-05-21T07:40:35.995Z,953.1339
2023-05-21T07:41:37.827Z,953.1423
2023-05-21T07:42:39.654Z,953.1431
2023-05-21T07:43:41.489Z,953.1539
2023-05-21T07:44:43.514Z,953.1561
2023-05-21T07:45:45.172Z,953.1339
2023-05-21T07:46:47.058Z,953.1077
2023-05-21T07:47:48.874Z,953.0892
2023-05-21T07:48:50.675Z,953.0785
2023-05-21T07:49:52.489Z,953.0808
2023-05-21T07:50:54.312Z,953.0877
2023-05-21T07:51:56.171Z,953.0939
2023-05-21T07:52:58.040Z,953.1015
2023-05-21T07:54:07.327Z,953.1100
2023-05-21T07:55:01.688Z,953.1275
2023-05-21T07:56:03.492Z,953.1346
2023-05-21T07:57:05.366Z,953.1292
2023-05-21T07:58:07.175Z,953.1254
2023-05-21T07:59:08.988Z,953.1223
2023-05-21T08:00:10.850Z,953.1215
2023-05-21T08:01:12.648Z,953.1262
2023-05-21T08:02:14.487Z,953.1315
2023-05-21T08:03:16.570Z,953.1377
2023-05-21T08:04:18.226Z,953.1469
2023-05-21T08:05:19.984Z,953.1508
2023-05-21T08:06:21.805Z,953.1485
2023-05-21T08:07:23.651Z,953.1615
2023-05-21T08:08:25.474Z,953.1508
2023-05-21T08:09:27.321Z,953.1377
2023-05-21T08:10:29.157Z,953.1423
2023-05-21T08:11:30.969Z,953.1408
2023-05-21T08:12:32.815Z,953.1439
2023-05-21T08:13:34.622Z,953.1431
2023-05-21T08:14:36.471Z,953.1431
2023-05-21T08:15:38.514Z,953.1370
2023-05-21T08:16:40.284Z,953.1370
2023-05-21T08:17:42.043Z,953.1415
2023-05-21T08:18:43.842Z,953.1362
2023-05-21T08:19:45.665Z,953.1323
2023-05-21T08:20:47.504Z,953.1277
2023-05-21T08:21:51.343Z,953.1223
2023-05-21T08:22:51.162Z,953.1246
2023-05-21T08:23:53.006Z,953.1254
2023-05-21T08:24:54.811Z,953.1270
2023-05-21T08:25:56.670Z,953.1262
2023-05-21T08:26:58.513Z,953.1254
2023-05-21T08:28:00.311Z,953.1339
2023-05-21T08:29:02.163Z,953.1346
2023-05-21T08:30:03.984Z,953.1277
2023-05-21T08:31:05.822Z,953.1292
2023-05-21T08:32:07.788Z,953.1246
2023-05-21T08:33:09.527Z,953.1161
2023-05-21T08:34:11.321Z,953.1138
2023-05-21T08:35:13.182Z,953.1138
2023-05-21T08:36:15.141Z,953.1100
2023-05-21T08:37:16.805Z,953.1038
2023-05-21T08:38:18.653Z,953.1023
2023-05-21T08:39:20.490Z,953.1146
2023-05-21T08:40:22.325Z,953.1130
2023-05-21T08:41:24.160Z,953.1169
2023-05-21T08:42:36.385Z,953.1185
2023-05-21T08:43:30.953Z,953.1154
2023-05-21T08:44:31.480Z,953.1031
2023-05-21T08:45:33.048Z,953.0808
2023-05-21T08:46:34.649Z,953.0677
2023-05-21T08:47:36.251Z,953.0662
2023-05-21T08:48:37.695Z,953.0608
2023-05-21T08:49:46.754Z,953.0685
2023-05-21T08:50:40.824Z,953.0725
2023-05-21T08:51:42.488Z,953.0808
2023-05-21T08:52:44.326Z,953.0869
2023-05-21T08:53:46.130Z,953.1008
2023-05-21T08:54:47.949Z,953.1046
2023-05-21T08:55:51.697Z,953.1092
2023-05-21T08:56:59.427Z,953.0954
2023-05-21T08:57:53.454Z,953.0967
2023-05-21T08:58:55.367Z,953.0908
2023-05-21T08:59:57.126Z,953.0877
2023-05-21T09:00:59.008Z,953.0870
2023-05-21T09:02:00.858Z,953.0815
2023-05-21T09:03:02.672Z,953.0847
2023-05-21T09:04:18.957Z,953.0877
2023-05-21T09:05:08.338Z,953.0847
2023-05-21T09:06:08.892Z,953.0946
2023-05-21T09:07:10.502Z,953.1046
2023-05-21T09:08:12.019Z,953.1169
2023-05-21T09:09:13.645Z,953.1385
2023-05-21T09:10:15.480Z,953.1447
2023-05-21T09:11:17.309Z,953.1439
2023-05-21T09:12:19.166Z,953.1370
2023-05-21T09:13:20.995Z,953.1277
2023-05-21T09:14:22.848Z,953.1262
2023-05-21T09:15:24.659Z,953.1115
2023-05-21T09:16:26.498Z,953.0954
2023-05-21T09:17:28.333Z,953.0892
2023-05-21T09:18:30.134Z,953.1038
2023-05-21T09:19:32.044Z,953.1053
2023-05-21T09:20:33.842Z,953.1154
2023-05-21T09:21:35.646Z,953.1285
2023-05-21T09:22:37.489Z,953.1223
2023-05-21T09:23:39.313Z,953.1230
2023-05-21T09:24:41.158Z,953.1038
2023-05-21T09:25:42.973Z,953.0939
2023-05-21T09:26:44.815Z,953.0770
2023-05-21T09:27:46.660Z,953.0538
2023-05-21T09:28:48.497Z,953.0354
2023-05-21T09:29:50.335Z,953.0269
2023-05-21T09:30:52.158Z,953.0192
2023-05-21T09:31:54.105Z,953.0208
2023-05-21T09:32:55.914Z,953.0215
2023-05-21T09:33:57.668Z,953.0323
2023-05-21T09:34:59.496Z,953.0308
2023-05-21T09:36:01.323Z,953.0331
2023-05-21T09:37:04.990Z,953.0316
2023-05-21T09:38:05.015Z,953.0354
2023-05-21T09:39:06.832Z,953.0331
2023-05-21T09:40:08.660Z,953.0231
2023-05-21T09:41:10.500Z,953.0038
2023-05-21T09:42:12.338Z,952.9915
2023-05-21T09:43:14.184Z,952.9954
2023-05-21T09:44:16.023Z,952.9962
2023-05-21T09:45:17.876Z,952.9938
2023-05-21T09:46:19.718Z,952.9962
2023-05-21T09:47:21.578Z,953.0077
2023-05-21T09:48:23.359Z,953.0146
2023-05-21T09:49:25.246Z,953.0185
2023-05-21T09:50:27.016Z,953.0262
2023-05-21T09:51:28.872Z,953.0308
2023-05-21T09:52:30.718Z,953.0308
2023-05-21T09:53:32.546Z,953.0269
2023-05-21T09:54:34.379Z,953.0239
2023-05-21T09:55:36.213Z,953.0346
2023-05-21T09:56:38.056Z,953.0392
2023-05-21T09:57:39.870Z,953.0477
2023-05-21T09:58:41.732Z,953.0415
2023-05-21T09:59:51.084Z,953.0500
2023-05-21T10:00:45.637Z,953.0558
2023-05-21T10:01:47.294Z,953.0646
2023-05-21T10:02:49.125Z,953.0808
2023-05-21T10:03:50.934Z,953.0831
2023-05-21T10:04:52.764Z,953.0870
2023-05-21T10:05:54.588Z,953.1053
2023-05-21T10:06:56.403Z,953.0992
2023-05-21T10:07:58.246Z,953.1077
2023-05-21T10:09:00.842Z,953.1085
2023-05-21T10:10:01.935Z,953.1115
2023-05-21T10:11:03.758Z,953.1246
2023-05-21T10:12:05.596Z,953.1392
2023-05-21T10:13:07.441Z,953.1392
2023-05-21T10:14:09.299Z,953.1377
2023-05-21T10:15:11.106Z,953.1423
2023-05-21T10:16:12.978Z,953.1223
2023-05-21T10:17:14.761Z,953.1023
2023-05-21T10:18:16.619Z,953.0839
2023-05-21T10:19:18.495Z,953.0662
2023-05-21T10:20:20.270Z,953.0554
2023-05-21T10:21:22.090Z,953.0453
2023-05-21T10:22:23.934Z,953.0385
2023-05-21T10:23:25.772Z,953.0277
2023-05-21T10:24:27.619Z,953.0377
2023-05-21T10:25:29.421Z,953.0285
2023-05-21T10:26:31.259Z,953.0377
2023-05-21T10:27:33.148Z,953.0346
2023-05-21T10:28:34.946Z,953.0323
2023-05-21T10:29:36.797Z,953.0277
2023-05-21T10:30:38.862Z,953.0108
2023-05-21T10:31:40.451Z,953.0070
2023-05-21T10:32:42.358Z,952.9962
2023-05-21T10:33:44.129Z,952.9700
2023-05-21T10:34:45.976Z,952.9539
2023-05-21T10:35:47.799Z,952.9315
2023-05-21T10:36:49.607Z,952.9192
2023-05-21T10:37:51.443Z,952.9123
2023-05-21T10:38:53.334Z,952.9000
2023-05-21T10:39:55.141Z,952.8947
2023-05-21T10:40:56.955Z,952.8962
2023-05-21T10:41:59.309Z,952.9031
2023-05-21T10:43:00.622Z,952.9108
2023-05-21T10:44:02.448Z,952.9246
2023-05-21T10:45:04.355Z,952.9285
2023-05-21T10:46:06.200Z,952.9362
2023-05-21T10:47:07.972Z,952.9315
2023-05-21T10:48:09.832Z,952.9185
2023-05-21T10:49:11.637Z,952.9115
2023-05-21T10:50:13.473Z,952.9054
2023-05-21T10:51:15.288Z,952.9000
2023-05-21T10:52:17.122Z,952.8823
2023-05-21T10:53:18.975Z,952.8677
2023-05-21T10:54:20.805Z,952.8677
2023-05-21T10:55:22.693Z,952.8777
2023-05-21T10:56:24.461Z,952.8800
2023-05-21T10:57:26.319Z,952.8808
2023-05-21T10:58:30.048Z,952.8900
2023-05-21T10:59:29.982Z,952.9016
2023-05-21T11:00:31.833Z,952.9061
2023-05-21T11:01:33.686Z,952.9131
2023-05-21T11:02:43.124Z,952.9138
2023-05-21T11:03:38.092Z,952.9233
2023-05-21T11:04:39.143Z,952.9138
2023-05-21T11:05:40.988Z,952.9061
2023-05-21T11:06:42.810Z,952.8984
2023-05-21T11:07:44.661Z,952.8877
2023-05-21T11:08:46.480Z,952.8870
2023-05-21T11:09:48.326Z,952.8939
2023-05-21T11:10:50.159Z,952.8900
2023-05-21T11:11:51.988Z,952.8885
2023-05-21T11:12:53.804Z,952.8954
2023-05-21T11:13:55.656Z,952.8915
2023-05-21T11:14:57.487Z,952.9016
2023-05-21T11:15:59.409Z,952.9054
2023-05-21T11:17:01.219Z,952.9138
2023-05-21T11:18:03.029Z,952.9123
2023-05-21T11:19:04.854Z,952.9054
2023-05-21T11:20:06.628Z,952.8977
2023-05-21T11:21:08.473Z,952.8900
2023-05-21T11:22:10.322Z,952.8785
2023-05-21T11:23:12.130Z,952.8661
2023-05-21T11:24:13.974Z,952.8638
2023-05-21T11:25:15.797Z,952.8546
2023-05-21T11:26:17.635Z,952.8392
2023-05-21T11:27:19.491Z,952.8331
2023-05-21T11:28:21.291Z,952.8200
2023-05-21T11:29:23.128Z,952.8123
2023-05-21T11:30:24.959Z,952.8162
2023-05-21T11:31:26.939Z,952.8054
2023-05-21T11:32:28.746Z,952.8038
2023-05-21T11:33:30.465Z,952.7869
2023-05-21T11:34:32.291Z,952.7577
2023-05-21T11:35:34.138Z,952.7400
2023-05-21T11:36:36.230Z,952.7146
2023-05-21T11:37:37.887Z,952.7100
2023-05-21T11:38:39.760Z,952.6938
2023-05-21T11:39:41.550Z,952.6892
2023-05-21T11:40:43.372Z,952.6685
2023-05-21T11:41:45.259Z,952.6554
2023-05-21T11:42:47.069Z,952.6523
2023-05-21T11:43:48.916Z,952.6315
2023-05-21T11:44:50.736Z,952.6270
2023-05-21T11:45:52.564Z,952.6308
2023-05-21T11:46:54.427Z,952.6308
2023-05-21T11:47:56.336Z,952.6130
2023-05-21T11:48:58.101Z,952.6069
2023-05-21T11:49:59.926Z,952.5908
2023-05-21T11:51:01.735Z,952.5770
2023-05-21T11:52:03.632Z,952.5839
2023-05-21T11:53:05.409Z,952.5877
2023-05-21T11:54:07.240Z,952.5854
2023-05-21T11:55:16.600Z,952.5854
2023-05-21T11:56:10.918Z,952.5775
2023-05-21T11:57:12.759Z,952.5692
2023-05-21T11:58:14.581Z,952.5808
2023-05-21T11:59:18.705Z,952.5946
2023-05-21T12:00:18.275Z,952.6092
2023-05-21T12:01:20.098Z,952.6254
2023-05-21T12:02:21.976Z,952.6415
2023-05-21T12:03:23.859Z,952.6447
2023-05-21T12:04:25.595Z,952.6523
2023-05-21T12:05:27.453Z,952.6584